createdAt,value
2022-12-05T00:02:04.458Z,14.47
2022-12-05T00:06:13.158Z,12.67
2022-12-05T00:10:21.712Z,13.30
2022-12-05T00:18:47.332Z,13.03
2022-12-05T00:22:56.617Z,13.35
2022-12-05T00:27:05.264Z,11.70
2022-12-05T00:31:16.900Z,15.50
2022-12-05T00:35:44.948Z,14.57
2022-12-05T00:39:53.577Z,14.07
2022-12-05T00:44:03.276Z,12.97
2022-12-05T00:48:11.959Z,12.27
2022-12-05T00:52:20.588Z,15.67
2022-12-05T00:56:31.024Z,14.03
2022-12-05T01:00:39.688Z,12.63
2022-12-05T01:04:48.828Z,14.53
2022-12-05T01:08:58.145Z,14.53
2022-12-05T01:13:26.775Z,14.37
2022-12-05T01:17:35.912Z,13.20
2022-12-05T01:21:45.019Z,15.57
2022-12-05T01:25:54.095Z,12.87
2022-12-05T01:30:02.722Z,16.00
2022-12-05T01:34:16.673Z,16.73
2022-12-05T01:38:25.332Z,14.10
2022-12-05T01:42:33.929Z,11.83
2022-12-05T01:46:51.390Z,15.47
2022-12-05T01:51:01.022Z,14.00
2022-12-05T01:55:28.930Z,11.53
2022-12-05T01:59:43.640Z,13.33
2022-12-05T02:03:54.851Z,13.97
2022-12-05T02:08:06.598Z,14.27
2022-12-05T02:12:15.265Z,15.47
2022-12-05T02:16:47.535Z,14.60
2022-12-05T02:21:08.491Z,13.33
2022-12-05T02:25:45.351Z,12.30
2022-12-05T02:30:05.787Z,15.00
2022-12-05T02:34:38.685Z,14.07
2022-12-05T02:39:05.613Z,13.77
2022-12-05T02:43:35.673Z,11.20
2022-12-05T02:47:47.889Z,14.27
2022-12-05T02:51:59.587Z,12.37
2022-12-05T02:56:08.737Z,12.77
2022-12-05T03:00:18.072Z,16.93
2022-12-05T03:04:28.516Z,11.90
2022-12-05T03:08:40.124Z,11.20
2022-12-05T03:12:52.561Z,12.97
2022-12-05T03:17:04.305Z,14.40
2022-12-05T03:21:18.522Z,14.90
2022-12-05T03:25:30.144Z,12.47
2022-12-05T03:29:56.973Z,11.18
2022-12-05T03:34:09.178Z,12.83
2022-12-05T03:38:23.763Z,12.53
2022-12-05T03:42:35.777Z,12.03
2022-12-05T03:46:56.104Z,11.90
2022-12-05T03:51:08.281Z,12.87
2022-12-05T03:55:17.991Z,13.60
2022-12-05T03:59:29.635Z,11.30
2022-12-05T04:03:41.628Z,13.07
2022-12-05T04:07:59.199Z,12.50
2022-12-05T04:12:10.981Z,11.53
2022-12-05T04:16:40.509Z,14.37
2022-12-05T04:21:09.106Z,13.67
2022-12-05T04:25:34.520Z,11.90
2022-12-05T04:29:46.123Z,12.37
2022-12-05T04:34:05.322Z,12.17
2022-12-05T04:38:22.661Z,13.33
2022-12-05T04:42:34.290Z,11.20
2022-12-05T04:46:45.787Z,12.63
2022-12-05T04:50:56.705Z,13.00
2022-12-05T04:55:14.134Z,14.30
2022-12-05T04:59:22.774Z,11.83
2022-12-05T05:03:56.280Z,12.90
2022-12-05T05:08:05.112Z,10.33
2022-12-05T05:12:18.807Z,11.53
2022-12-05T05:16:27.815Z,11.17
2022-12-05T05:20:36.426Z,11.27
2022-12-05T05:24:44.966Z,12.43
2022-12-05T05:28:54.263Z,12.90
2022-12-05T05:33:02.927Z,11.60
2022-12-05T05:37:11.557Z,12.37
2022-12-05T05:41:23.154Z,11.17
2022-12-05T05:45:31.784Z,11.20
2022-12-05T05:49:40.313Z,10.50
2022-12-05T05:53:49.685Z,11.10
2022-12-05T05:57:58.386Z,11.90
2022-12-05T06:02:07.423Z,11.87
2022-12-05T06:06:16.770Z,11.47
2022-12-05T06:10:25.404Z,11.10
2022-12-05T06:14:34.231Z,10.33
2022-12-05T06:18:43.114Z,10.93
2022-12-05T06:22:51.796Z,12.07
2022-12-05T06:27:00.322Z,12.63
2022-12-05T06:31:12.076Z,11.73
2022-12-05T06:35:20.959Z,9.50
2022-12-05T06:39:29.602Z,10.57
2022-12-05T06:43:38.220Z,9.80
2022-12-05T06:47:46.853Z,11.10
2022-12-05T06:51:55.447Z,12.90
2022-12-05T06:56:08.709Z,9.43
2022-12-05T07:00:38.480Z,9.60
2022-12-05T07:04:47.277Z,11.30
2022-12-05T07:08:56.310Z,9.83
2022-12-05T07:13:05.344Z,8.50
2022-12-05T07:17:14.078Z,10.53
2022-12-05T07:21:22.601Z,8.83
2022-12-05T07:25:31.229Z,9.53
2022-12-05T07:29:40.064Z,9.30
2022-12-05T07:33:49.204Z,8.60
2022-12-05T07:38:17.085Z,7.20
2022-12-05T07:42:25.713Z,9.37
2022-12-05T07:46:34.445Z,7.60
2022-12-05T07:51:23.022Z,8.07
2022-12-05T07:55:31.645Z,10.40
2022-12-05T07:59:40.265Z,8.53
2022-12-05T08:03:49.332Z,8.80
2022-12-05T08:07:57.961Z,8.20
2022-12-05T08:12:07.178Z,7.60
2022-12-05T08:16:18.254Z,9.07
2022-12-05T08:20:26.805Z,9.93
2022-12-05T08:24:35.519Z,8.87
2022-12-05T08:28:45.890Z,9.50
2022-12-05T08:32:54.517Z,8.30
2022-12-05T08:37:03.235Z,8.90
2022-12-05T08:41:15.357Z,7.87
2022-12-05T08:45:23.914Z,7.97
2022-12-05T08:49:32.719Z,9.90
2022-12-05T08:53:44.919Z,8.47
2022-12-05T08:57:53.367Z,9.00
2022-12-05T09:02:01.983Z,7.80
2022-12-05T09:06:13.442Z,9.63
2022-12-05T09:10:22.210Z,8.43
2022-12-05T09:14:32.414Z,8.30
2022-12-05T09:18:41.389Z,8.35
2022-12-05T09:22:50.042Z,10.20
2022-12-05T09:26:58.670Z,9.70
2022-12-05T09:31:10.944Z,9.13
2022-12-05T09:35:19.587Z,6.97
2022-12-05T09:39:28.623Z,8.87
2022-12-05T09:43:58.448Z,10.70
2022-12-05T09:48:18.917Z,7.20
2022-12-05T09:52:36.524Z,8.60
2022-12-05T09:56:58.790Z,11.63
2022-12-05T10:01:13.499Z,8.13
2022-12-05T10:05:28.049Z,9.60
2022-12-05T10:09:42.577Z,8.87
2022-12-05T10:14:09.151Z,9.20
2022-12-05T10:18:42.042Z,9.60
2022-12-05T10:22:56.543Z,9.77
2022-12-05T10:27:08.730Z,6.77
2022-12-05T10:31:20.409Z,6.83
2022-12-05T10:35:40.900Z,7.33
2022-12-05T10:39:52.247Z,6.43
2022-12-05T10:44:02.279Z,6.63
2022-12-05T10:48:32.600Z,7.27
2022-12-05T10:52:41.227Z,6.87
2022-12-05T10:56:52.521Z,6.90
2022-12-05T11:01:13.126Z,7.73
2022-12-05T11:05:30.367Z,8.57
2022-12-05T11:09:39.681Z,8.03
2022-12-05T11:13:57.668Z,9.73
2022-12-05T11:18:22.460Z,6.97
2022-12-05T11:22:35.403Z,6.10
2022-12-05T11:26:45.498Z,7.40
2022-12-05T11:31:02.934Z,6.30
2022-12-05T11:35:24.232Z,7.67
2022-12-05T11:39:34.889Z,8.50
2022-12-05T11:43:50.074Z,8.30
2022-12-05T11:48:13.753Z,6.80
2022-12-05T11:52:28.639Z,6.77
2022-12-05T11:56:39.819Z,6.10
2022-12-05T12:00:59.402Z,6.80
2022-12-05T12:05:22.652Z,8.00
2022-12-05T12:10:11.621Z,6.60
2022-12-05T12:18:38.542Z,6.30
2022-12-05T12:23:04.990Z,7.60
2022-12-05T12:27:40.239Z,6.53
2022-12-05T12:31:51.985Z,7.58
2022-12-05T12:36:29.509Z,7.67
2022-12-05T12:40:54.048Z,8.80
2022-12-05T12:45:25.054Z,6.50
2022-12-05T12:49:39.570Z,9.27
2022-12-05T12:53:54.445Z,8.00
2022-12-05T12:58:12.084Z,7.57
2022-12-05T13:02:32.651Z,8.83
2022-12-05T13:06:44.246Z,8.67
2022-12-05T13:10:54.269Z,7.97
2022-12-05T13:15:08.523Z,8.93
2022-12-05T13:19:26.067Z,8.57
2022-12-05T13:23:37.700Z,10.80
2022-12-05T13:27:58.261Z,8.40
2022-12-05T13:32:09.743Z,7.23
2022-12-05T13:36:40.407Z,10.70
2022-12-05T13:41:11.554Z,9.13
2022-12-05T13:45:40.499Z,9.63
2022-12-05T13:49:52.208Z,8.87
2022-12-05T13:54:03.964Z,8.67
2022-12-05T13:58:22.408Z,8.27
2022-12-05T14:02:46.953Z,9.20
2022-12-05T14:06:58.370Z,8.87
2022-12-05T14:11:11.117Z,7.87
2022-12-05T14:15:28.754Z,7.83
2022-12-05T14:19:40.879Z,8.57
2022-12-05T14:24:21.030Z,8.17
2022-12-05T14:28:52.044Z,7.13
2022-12-05T14:33:03.243Z,6.90
2022-12-05T14:37:21.588Z,8.60
2022-12-05T14:41:36.121Z,7.70
2022-12-05T14:45:53.133Z,7.10
2022-12-05T14:50:21.443Z,8.60
2022-12-05T14:54:32.429Z,8.93
2022-12-05T14:58:59.416Z,9.70
2022-12-05T15:03:11.046Z,9.47
2022-12-05T15:07:22.946Z,8.80
2022-12-05T15:11:33.137Z,6.97
2022-12-05T15:16:00.062Z,8.73
2022-12-05T15:20:28.504Z,9.13
2022-12-05T15:24:58.032Z,8.18
2022-12-05T15:29:12.900Z,8.80
2022-12-05T15:33:21.424Z,6.90
2022-12-05T15:37:46.136Z,10.10
2022-12-05T15:41:55.712Z,9.40
2022-12-05T15:46:24.801Z,6.70
2022-12-05T15:50:48.470Z,7.37
2022-12-05T15:55:02.425Z,7.20
2022-12-05T15:59:19.968Z,6.77
2022-12-05T16:03:44.360Z,6.40
2022-12-05T16:08:12.351Z,6.57
2022-12-05T16:12:23.983Z,6.00
2022-12-05T16:16:36.135Z,6.50
2022-12-05T16:20:44.878Z,6.60
2022-12-05T16:25:00.272Z,7.43
2022-12-05T16:29:12.487Z,6.60
2022-12-05T16:33:21.341Z,6.60
2022-12-05T16:37:31.024Z,6.47
2022-12-05T16:41:41.540Z,8.87
2022-12-05T16:45:51.148Z,8.97
2022-12-05T16:50:01.377Z,6.43
2022-12-05T16:54:10.487Z,6.33
2022-12-05T16:58:25.564Z,7.60
2022-12-05T17:02:34.277Z,7.07
2022-12-05T17:06:42.803Z,7.77
2022-12-05T17:10:52.306Z,6.57
2022-12-05T17:15:01.209Z,7.93
2022-12-05T17:19:12.311Z,6.97
2022-12-05T17:23:21.151Z,7.37
2022-12-05T17:27:29.711Z,8.20
2022-12-05T17:31:39.004Z,6.70
2022-12-05T17:35:47.630Z,6.57
2022-12-05T17:39:56.462Z,7.43
2022-12-05T17:44:07.052Z,8.83
2022-12-05T17:48:16.694Z,7.00
2022-12-05T17:52:25.303Z,7.67
2022-12-05T17:56:53.196Z,7.33
2022-12-05T18:01:02.928Z,8.83
2022-12-05T18:05:13.314Z,7.33
2022-12-05T18:09:22.507Z,7.47
2022-12-05T18:13:31.107Z,7.57
2022-12-05T18:17:40.007Z,8.90
2022-12-05T18:21:48.538Z,8.80
2022-12-05T18:26:00.068Z,7.70
2022-12-05T18:30:09.416Z,8.10
2022-12-05T18:34:18.037Z,9.27
2022-12-05T18:38:26.590Z,8.37
2022-12-05T18:42:35.564Z,8.23
2022-12-05T18:46:44.118Z,9.57
2022-12-05T18:50:53.168Z,8.80
2022-12-05T18:55:17.859Z,9.20
2022-12-05T18:59:16.800Z,10.07
2022-12-05T19:03:25.402Z,9.80
2022-12-05T19:07:34.046Z,8.80
2022-12-05T19:11:47.892Z,8.80
2022-12-05T19:16:19.277Z,8.90
2022-12-05T19:20:28.590Z,7.80
2022-12-05T19:24:37.320Z,7.13
2022-12-05T19:28:46.060Z,8.50
2022-12-05T19:33:14.036Z,9.83
2022-12-05T19:37:22.664Z,7.70
2022-12-05T19:41:31.701Z,6.80
2022-12-05T19:45:40.489Z,8.27
2022-12-05T19:49:49.163Z,7.60
2022-12-05T19:54:00.436Z,6.83
2022-12-05T19:58:09.084Z,8.43
2022-12-05T20:02:17.745Z,9.03
2022-12-05T20:06:27.365Z,8.30
2022-12-05T20:10:38.247Z,8.10
2022-12-05T20:14:46.875Z,9.03
2022-12-05T20:19:15.472Z,10.70
2022-12-05T20:23:24.138Z,10.33
2022-12-05T20:27:34.189Z,11.87
2022-12-05T20:31:44.398Z,9.60
2022-12-05T20:35:53.161Z,8.40
2022-12-05T20:40:01.794Z,9.07
2022-12-05T20:44:29.874Z,11.80
2022-12-05T20:48:38.741Z,13.30
2022-12-05T20:52:47.542Z,12.33
2022-12-05T20:56:56.530Z,9.73
2022-12-05T21:01:08.858Z,8.00
2022-12-05T21:05:17.578Z,9.00
2022-12-05T21:09:30.273Z,8.13
2022-12-05T21:13:40.586Z,9.50
2022-12-05T21:17:49.249Z,8.00
2022-12-05T21:21:57.977Z,9.03
2022-12-05T21:26:09.493Z,9.30
2022-12-05T21:30:18.306Z,7.80
2022-12-05T21:34:26.936Z,9.17
2022-12-05T21:38:36.210Z,8.30
2022-12-05T21:42:44.909Z,8.07
2022-12-05T21:46:53.710Z,9.13
2022-12-05T21:51:04.419Z,9.40
2022-12-05T21:55:13.048Z,8.90
2022-12-05T21:59:21.574Z,8.10
2022-12-05T22:03:30.422Z,9.40
2022-12-05T22:07:39.036Z,9.77
2022-12-05T22:12:07.019Z,7.70
2022-12-05T22:16:35.267Z,8.33
2022-12-05T22:20:43.836Z,9.67
2022-12-05T22:24:52.375Z,8.37
2022-12-05T22:29:20.960Z,8.60
2022-12-05T22:33:31.567Z,11.10
2022-12-05T22:37:40.161Z,10.23
2022-12-05T22:41:48.790Z,8.03
2022-12-05T22:45:57.759Z,9.93
2022-12-05T22:50:07.183Z,9.80
2022-12-05T22:54:15.885Z,9.63
2022-12-05T22:58:44.300Z,8.90
2022-12-05T23:02:53.974Z,10.00
2022-12-05T23:07:02.697Z,9.73
2022-12-05T23:11:12.582Z,9.80
2022-12-05T23:15:21.268Z,9.27
2022-12-05T23:19:29.750Z,10.90
2022-12-05T23:23:40.189Z,9.40
2022-12-05T23:27:48.792Z,8.87
2022-12-05T23:31:57.357Z,9.30
2022-12-05T23:36:26.828Z,9.97
2022-12-05T23:40:35.387Z,9.70
2022-12-05T23:44:44.049Z,10.27
2022-12-05T23:48:53.305Z,10.67
2022-12-05T23:53:03.088Z,11.60
2022-12-05T23:57:17.252Z,8.50
